createdAt,value
2022-10-10T00:02:12.725Z,101220.16
2022-10-10T00:07:14.946Z,101206.81
2022-10-10T00:12:17.121Z,101203.03
2022-10-10T00:17:19.455Z,101205.97
2022-10-10T00:22:21.846Z,101202.00
2022-10-10T00:27:24.133Z,101196.75
2022-10-10T00:32:26.401Z,101193.63
2022-10-10T00:37:28.814Z,101195.91
2022-10-10T00:42:31.125Z,101195.53
2022-10-10T00:47:34.120Z,101196.75
2022-10-10T00:52:36.331Z,101204.25
2022-10-10T00:57:38.611Z,101190.00
2022-10-10T01:02:41.064Z,101202.66
2022-10-10T01:07:45.035Z,101215.75
2022-10-10T01:13:08.058Z,101226.97
2022-10-10T01:18:24.770Z,101222.59
2022-10-10T01:23:57.713Z,101211.50
2022-10-10T01:29:14.884Z,101238.19
2022-10-10T01:34:39.877Z,101224.75
2022-10-10T01:40:25.555Z,101225.41
2022-10-10T01:45:28.534Z,101218.97
2022-10-10T01:50:36.345Z,101201.88
2022-10-10T01:55:59.685Z,101218.06
2022-10-10T02:01:15.231Z,101245.41
2022-10-10T02:06:29.886Z,101204.09
2022-10-10T02:11:38.868Z,101222.94
2022-10-10T02:16:46.591Z,101218.81
2022-10-10T02:21:51.388Z,101212.78
2022-10-10T02:27:02.197Z,101243.75
2022-10-10T02:32:13.524Z,101230.34
2022-10-10T02:37:17.322Z,101243.72
2022-10-10T02:42:22.514Z,101242.44
2022-10-10T02:47:24.850Z,101255.34
2022-10-10T02:52:27.167Z,101245.91
2022-10-10T02:57:29.351Z,101246.94
2022-10-10T03:02:31.606Z,101261.28
2022-10-10T03:07:33.803Z,101254.50
2022-10-10T03:12:36.538Z,101268.28
2022-10-10T03:17:38.751Z,101238.16
2022-10-10T03:22:40.937Z,101270.97
2022-10-10T03:27:43.131Z,101291.63
2022-10-10T03:32:45.431Z,101288.03
2022-10-10T03:37:47.654Z,101297.81
2022-10-10T03:42:50.037Z,101314.66
2022-10-10T03:47:52.383Z,101313.69
2022-10-10T03:52:54.678Z,101296.78
2022-10-10T03:57:57.111Z,101304.72
2022-10-10T04:02:59.770Z,101306.50
2022-10-10T04:08:02.248Z,101308.34
2022-10-10T04:13:04.645Z,101284.53
2022-10-10T04:18:07.042Z,101312.53
2022-10-10T04:23:09.332Z,101302.31
2022-10-10T04:28:13.591Z,101333.56
2022-10-10T04:33:15.923Z,101325.19
2022-10-10T04:38:20.249Z,101317.66
2022-10-10T04:43:22.483Z,101308.78
2022-10-10T04:48:25.224Z,101319.38
2022-10-10T04:53:28.199Z,101323.38
2022-10-10T04:58:30.852Z,101340.09
2022-10-10T05:03:33.402Z,101329.50
2022-10-10T05:08:35.612Z,101340.94
2022-10-10T05:13:37.961Z,101367.69
2022-10-10T05:18:40.171Z,101355.22
2022-10-10T05:23:42.376Z,101359.44
2022-10-10T05:28:44.751Z,101350.44
2022-10-10T05:33:47.234Z,101376.28
2022-10-10T05:38:49.671Z,101358.53
2022-10-10T05:43:52.191Z,101368.97
2022-10-10T05:48:54.728Z,101374.56
2022-10-10T05:53:57.799Z,101372.59
2022-10-10T05:59:00.019Z,101394.94
2022-10-10T06:04:02.718Z,101374.13
2022-10-10T06:09:05.106Z,101379.00
2022-10-10T06:14:07.669Z,101387.28
2022-10-10T06:19:14.645Z,101388.25
2022-10-10T06:24:17.295Z,101409.06
2022-10-10T06:29:19.526Z,101416.44
2022-10-10T06:34:21.845Z,101413.38
2022-10-10T06:39:24.298Z,101402.78
2022-10-10T06:44:26.805Z,101419.16
2022-10-10T06:49:29.824Z,101406.69
2022-10-10T06:54:32.176Z,101410.53
2022-10-10T06:59:34.819Z,101399.69
2022-10-10T07:04:37.604Z,101399.72
2022-10-10T07:09:39.852Z,101420.59
2022-10-10T07:14:42.038Z,101397.84
2022-10-10T07:19:44.209Z,101390.09
2022-10-10T07:24:46.546Z,101428.50
2022-10-10T07:29:48.873Z,101414.03
2022-10-10T07:34:51.355Z,101419.19
2022-10-10T07:39:54.386Z,101410.78
2022-10-10T07:44:56.659Z,101417.84
2022-10-10T07:49:59.081Z,101409.47
2022-10-10T07:55:02.195Z,101413.53
2022-10-10T08:00:07.022Z,101421.16
2022-10-10T08:05:15.107Z,101415.69
2022-10-10T08:10:17.390Z,101404.41
2022-10-10T08:15:20.036Z,101398.53
2022-10-10T08:20:22.331Z,101376.44
2022-10-10T08:25:24.525Z,101401.13
2022-10-10T08:30:26.719Z,101417.34
2022-10-10T08:35:29.090Z,101401.59
2022-10-10T08:40:31.951Z,101393.94
2022-10-10T08:45:36.099Z,101398.09
2022-10-10T08:50:47.013Z,101399.50
2022-10-10T08:55:49.614Z,101393.22
2022-10-10T09:01:13.475Z,101400.50
2022-10-10T09:06:40.215Z,101401.94
2022-10-10T09:11:42.895Z,101411.06
2022-10-10T09:16:54.544Z,101406.22
2022-10-10T09:22:02.295Z,101387.19
2022-10-10T09:27:07.283Z,101394.19
2022-10-10T09:32:21.516Z,101397.25
2022-10-10T09:37:46.432Z,101369.25
2022-10-10T09:42:50.684Z,101361.16
2022-10-10T09:47:55.928Z,101371.31
2022-10-10T09:52:59.324Z,101381.56
2022-10-10T09:58:20.182Z,101381.03
2022-10-10T10:03:23.502Z,101359.50
2022-10-10T10:08:32.701Z,101357.69
2022-10-10T10:13:38.015Z,101358.72
2022-10-10T10:18:48.326Z,101353.38
2022-10-10T10:24:01.139Z,101348.47
2022-10-10T10:29:03.983Z,101316.97
2022-10-10T10:34:15.496Z,101313.06
2022-10-10T10:39:34.192Z,101321.94
2022-10-10T10:44:54.331Z,101321.81
2022-10-10T10:50:05.747Z,101316.66
2022-10-10T10:55:42.448Z,101293.91
2022-10-10T11:01:24.296Z,101287.00
2022-10-10T11:06:31.515Z,101293.34
2022-10-10T11:11:49.305Z,101287.13
2022-10-10T11:17:14.213Z,101273.91
2022-10-10T11:22:20.543Z,101258.88
2022-10-10T11:27:33.970Z,101249.19
2022-10-10T11:33:07.855Z,101244.91
2022-10-10T11:38:41.255Z,101244.94
2022-10-10T11:44:04.715Z,101241.91
2022-10-10T11:49:13.121Z,101225.91
2022-10-10T11:54:47.536Z,101225.25
2022-10-10T11:59:58.337Z,101192.50
2022-10-10T12:05:01.348Z,101192.69
2022-10-10T12:10:14.294Z,101208.44
2022-10-10T12:15:49.953Z,101163.91
2022-10-10T12:21:05.545Z,101182.63
2022-10-10T12:26:14.685Z,101198.72
2022-10-10T12:31:27.500Z,101213.56
2022-10-10T12:36:29.676Z,101205.13
2022-10-10T12:41:53.159Z,101215.03
2022-10-10T12:47:17.414Z,101225.81
2022-10-10T12:52:36.413Z,101206.84
2022-10-10T12:57:43.522Z,101220.13
2022-10-10T13:02:58.088Z,101216.00
2022-10-10T13:08:03.307Z,101214.09
2022-10-10T13:13:18.497Z,101195.44
2022-10-10T13:18:48.772Z,101211.94
2022-10-10T13:29:33.453Z,101210.59
2022-10-10T13:34:43.033Z,101207.28
2022-10-10T13:39:47.915Z,101200.72
2022-10-10T13:44:53.406Z,101191.63
2022-10-10T13:49:57.351Z,101186.97
2022-10-10T13:55:26.434Z,101195.22
2022-10-10T14:00:33.043Z,101174.88
2022-10-10T14:05:35.648Z,101202.63
2022-10-10T14:10:38.532Z,101155.06
2022-10-10T14:15:47.114Z,101143.50
2022-10-10T14:20:50.534Z,101179.75
2022-10-10T14:25:53.686Z,101169.59
2022-10-10T14:30:56.144Z,101159.16
2022-10-10T14:36:00.758Z,101147.88
2022-10-10T14:41:03.338Z,101126.44
2022-10-10T14:46:07.298Z,101142.94
2022-10-10T14:51:34.361Z,101134.13
2022-10-10T14:57:08.996Z,101098.44
2022-10-10T15:01:57.474Z,101094.03
2022-10-10T15:07:12.938Z,101115.19
2022-10-10T15:12:15.947Z,101135.53
2022-10-10T15:17:18.472Z,101132.38
2022-10-10T15:22:20.940Z,101124.13
2022-10-10T15:27:23.378Z,101154.53
2022-10-10T15:32:26.121Z,101155.50
2022-10-10T15:37:28.468Z,101150.44
2022-10-10T15:42:31.569Z,101158.47
2022-10-10T15:47:33.900Z,101136.59
2022-10-10T15:52:37.073Z,101169.41
2022-10-10T15:57:39.698Z,101174.28
2022-10-10T16:02:42.099Z,101164.00
2022-10-10T16:07:48.259Z,101177.94
2022-10-10T16:12:50.976Z,101180.28
2022-10-10T16:17:53.455Z,101177.75
2022-10-10T16:22:56.116Z,101211.81
2022-10-10T16:27:58.307Z,101189.19
2022-10-10T16:33:00.898Z,101194.75
2022-10-10T16:38:03.206Z,101216.69
2022-10-10T16:43:05.947Z,101233.41
2022-10-10T16:48:08.314Z,101222.06
2022-10-10T16:53:11.386Z,101237.22
2022-10-10T16:58:13.768Z,101228.66
2022-10-10T17:03:34.567Z,101252.97
2022-10-10T17:08:37.339Z,101233.38
2022-10-10T17:13:39.745Z,101234.56
2022-10-10T17:18:42.147Z,101224.19
2022-10-10T17:23:44.709Z,101225.25
2022-10-10T17:28:47.118Z,101240.19
2022-10-10T17:33:53.538Z,101249.88
2022-10-10T17:38:57.299Z,101252.47
2022-10-10T17:44:01.057Z,101239.75
2022-10-10T17:49:08.252Z,101251.09
2022-10-10T17:54:11.484Z,101235.47
2022-10-10T17:59:14.049Z,101236.97
2022-10-10T18:04:16.859Z,101221.50
2022-10-10T18:09:19.234Z,101232.75
2022-10-10T18:14:22.155Z,101264.44
2022-10-10T18:19:24.595Z,101248.13
2022-10-10T18:24:26.858Z,101247.19
2022-10-10T18:29:29.090Z,101252.38
2022-10-10T18:34:31.331Z,101244.78
2022-10-10T18:39:36.401Z,101269.81
2022-10-10T18:44:38.667Z,101263.78
2022-10-10T18:49:41.267Z,101283.91
2022-10-10T18:54:43.699Z,101247.72
2022-10-10T18:59:46.185Z,101274.16
2022-10-10T19:04:48.860Z,101273.56
2022-10-10T19:09:51.414Z,101275.75
2022-10-10T19:14:53.931Z,101231.72
2022-10-10T19:19:56.246Z,101261.91
2022-10-10T19:24:58.908Z,101249.66
2022-10-10T19:30:01.062Z,101273.38
2022-10-10T19:35:03.684Z,101286.16
2022-10-10T19:40:06.561Z,101270.56
2022-10-10T19:45:09.342Z,101274.19
2022-10-10T19:50:11.980Z,101262.16
2022-10-10T19:55:14.373Z,101299.84
2022-10-10T20:00:16.924Z,101273.69
2022-10-10T20:05:19.192Z,101272.25
2022-10-10T20:10:22.021Z,101259.81
2022-10-10T20:15:24.353Z,101273.66
2022-10-10T20:20:26.625Z,101240.78
2022-10-10T20:25:28.815Z,101250.09
2022-10-10T20:30:31.357Z,101244.28
2022-10-10T20:35:34.719Z,101246.81
2022-10-10T20:40:41.408Z,101212.56
2022-10-10T20:45:43.848Z,101226.53
2022-10-10T20:50:46.049Z,101247.38
2022-10-10T20:55:48.283Z,101260.16
2022-10-10T21:00:51.472Z,101233.97
2022-10-10T21:06:02.714Z,101247.56
2022-10-10T21:11:07.748Z,101290.59
2022-10-10T21:16:13.786Z,101290.25
2022-10-10T21:21:16.383Z,101250.13
2022-10-10T21:26:21.260Z,101269.28
2022-10-10T21:31:36.647Z,101203.75
2022-10-10T21:36:38.974Z,101252.06
2022-10-10T21:41:41.979Z,101275.66
2022-10-10T21:46:44.428Z,101264.84
2022-10-10T21:51:46.993Z,101252.94
2022-10-10T21:56:49.604Z,101245.72
2022-10-10T22:01:51.975Z,101224.25
2022-10-10T22:06:54.487Z,101269.91
2022-10-10T22:11:56.811Z,101236.94
2022-10-10T22:16:59.311Z,101234.44
2022-10-10T22:22:01.873Z,101246.75
2022-10-10T22:27:04.276Z,101223.59
2022-10-10T22:32:06.668Z,101210.53
2022-10-10T22:37:09.174Z,101235.91
2022-10-10T22:42:11.615Z,101204.91
2022-10-10T22:47:13.931Z,101221.78
2022-10-10T22:52:16.458Z,101193.47
2022-10-10T22:57:18.637Z,101220.34
2022-10-10T23:02:20.967Z,101228.06
2022-10-10T23:07:23.226Z,101201.81
2022-10-10T23:12:25.639Z,101203.47
2022-10-10T23:17:27.865Z,101211.41
2022-10-10T23:22:30.250Z,101219.50
2022-10-10T23:27:32.778Z,101225.56
2022-10-10T23:32:35.409Z,101251.44
2022-10-10T23:37:37.875Z,101232.25
2022-10-10T23:42:40.081Z,101207.28
2022-10-10T23:47:42.278Z,101236.03
2022-10-10T23:52:44.708Z,101231.66
2022-10-10T23:57:47.236Z,101227.50
